Terminal Aerodrome Forecast
Issued by NWS

Current Version | Previous Version | Text Only | Print | Product List | Glossary On
Versions: 1 2 3 4 5 6 7 8 9 10 11 12
000
FTUS42 TJSJ 021145
TAFIST
TAF
TIST 021145Z 0212/0312 08007KT P6SM VCSH FEW025
     FM021300 13015G20KT P6SM VCSH SCT025
     FM022300 10010KT P6SM FEW025 FEW035=

USA.gov is the U.S. government's official web portal to all federal, state and local government web resources and services.